Time;durP1;ratioP1;P1;durP2;ratioP2;P2;SDS_P1;SDS_P2;PMS_P1;PMS_P2;Temp;Humidity;BMP_temperature;BMP_pressure;BME280_temperature;BME280_humidity;BME280_pressure;Samples;Min_cycle;Max_cycle;Signal;HPM_P1;HPM_P2
2020/12/26 00:01:18;;;;;;;10.32;5.93;;;0.00;99.90;;;;;;5057851;28;20131;-78
2020/12/26 00:03:44;;;;;;;12.90;6.97;;;0.00;99.90;;;;;;5057747;28;20099;-78
2020/12/26 00:06:17;;;;;;;11.70;6.65;;;0.00;99.90;;;;;;5057811;28;20035;-78
2020/12/26 00:08:44;;;;;;;12.82;7.15;;;0.00;99.90;;;;;;5075597;28;20028;-78
2020/12/26 00:11:12;;;;;;;15.18;7.90;;;-0.10;99.90;;;;;;5057677;28;20052;-78
2020/12/26 00:13:38;;;;;;;12.77;6.65;;;-0.10;99.90;;;;;;5075451;28;20028;-78
2020/12/26 00:16:05;;;;;;;13.88;7.45;;;-0.10;99.90;;;;;;5057788;28;20063;-78
2020/12/26 00:18:32;;;;;;;12.95;7.25;;;-0.10;99.90;;;;;;5075307;28;20037;-78
2020/12/26 00:20:59;;;;;;;13.40;6.28;;;-0.10;99.90;;;;;;5075468;28;20100;-78
2020/12/26 00:23:25;;;;;;;11.45;6.75;;;-0.10;99.90;;;;;;5057273;28;20012;-78
2020/12/26 00:25:51;;;;;;;10.68;6.35;;;-0.10;99.90;;;;;;5075317;28;20490;-79
2020/12/26 00:28:16;;;;;;;12.63;6.68;;;-0.10;99.90;;;;;;5057326;28;20043;-78
2020/12/26 00:30:43;;;;;;;13.13;7.57;;;-0.10;99.90;;;;;;5057235;28;20063;-79
2020/12/26 00:33:08;;;;;;;14.90;7.85;;;-0.10;99.90;;;;;;5055491;28;20028;-78
2020/12/26 00:35:34;;;;;;;15.98;7.25;;;-0.20;99.90;;;;;;5075169;28;20158;-78
2020/12/26 00:37:59;;;;;;;13.40;8.38;;;-0.10;99.90;;;;;;5057011;28;20123;-78
2020/12/26 00:40:25;;;;;;;10.95;6.25;;;-0.20;99.90;;;;;;5075010;28;20104;-78
2020/12/26 00:42:51;;;;;;;16.75;6.60;;;-0.10;99.90;;;;;;5057075;28;20094;-78
2020/12/26 00:45:16;;;;;;;14.70;7.45;;;-0.10;99.90;;;;;;5074996;28;20098;-79
2020/12/26 00:47:43;;;;;;;14.32;6.47;;;-0.10;99.90;;;;;;5056933;28;20024;-78
2020/12/26 00:50:09;;;;;;;11.02;6.43;;;-0.10;99.90;;;;;;5057023;28;20017;-78
2020/12/26 00:52:35;;;;;;;8.57;5.65;;;-0.10;99.90;;;;;;5074700;28;20025;-78
2020/12/26 00:55:00;;;;;;;13.27;4.93;;;-0.10;99.90;;;;;;5074812;28;20103;-78
2020/12/26 00:57:26;;;;;;;10.13;5.75;;;-0.10;99.90;;;;;;5056633;28;20123;-78
2020/12/26 00:59:52;;;;;;;16.48;6.65;;;-0.20;99.90;;;;;;5074679;28;20078;-78
2020/12/26 01:02:17;;;;;;;10.82;5.57;;;-0.20;99.90;;;;;;5056613;28;20470;-78
2020/12/26 01:04:43;;;;;;;9.73;5.20;;;-0.20;99.90;;;;;;5056571;28;20025;-78
2020/12/26 01:07:09;;;;;;;13.18;7.22;;;-0.20;99.90;;;;;;5074615;28;20016;-78
2020/12/26 01:09:34;;;;;;;10.23;6.25;;;-0.20;99.90;;;;;;5074376;28;20474;-78
2020/12/26 01:12:00;;;;;;;10.48;5.35;;;-0.20;99.90;;;;;;5074438;28;20020;-78
2020/12/26 01:14:26;;;;;;;9.65;7.15;;;-0.20;99.90;;;;;;5074303;28;20032;-78
2020/12/26 01:16:52;;;;;;;14.23;6.47;;;-0.20;99.90;;;;;;5056350;28;20390;-78
2020/12/26 01:19:18;;;;;;;11.35;5.85;;;-0.20;99.90;;;;;;5056381;28;20035;-79
2020/12/26 01:21:50;;;;;;;11.52;6.13;;;-0.20;99.90;;;;;;5074175;28;20100;-78
2020/12/26 01:24:17;;;;;;;10.43;5.05;;;-0.20;99.90;;;;;;5056305;28;20405;-78
2020/12/26 01:26:45;;;;;;;7.68;4.57;;;-0.20;99.90;;;;;;5056289;28;20032;-78
2020/12/26 01:29:11;;;;;;;9.20;5.57;;;-0.20;99.90;;;;;;5056239;28;20082;-78
2020/12/26 01:31:37;;;;;;;11.32;4.80;;;-0.20;99.90;;;;;;5056062;28;20024;-78
2020/12/26 01:34:02;;;;;;;11.25;6.30;;;-0.20;99.90;;;;;;5056087;28;20027;-78
2020/12/26 01:36:28;;;;;;;10.63;5.60;;;-0.20;99.90;;;;;;5073976;28;20024;-78
2020/12/26 01:38:53;;;;;;;8.95;5.20;;;-0.20;99.90;;;;;;5055951;28;20041;-78
2020/12/26 01:41:19;;;;;;;8.85;5.07;;;-0.20;99.90;;;;;;5055998;28;20028;-78
2020/12/26 01:44:14;;;;;;;7.93;5.38;;;-0.20;99.90;;;;;;5055373;28;20454;-78
2020/12/26 01:46:40;;;;;;;8.60;4.68;;;-0.30;99.90;;;;;;5043141;28;20569;-78
2020/12/26 01:49:06;;;;;;;11.35;5.90;;;-0.30;99.90;;;;;;5055814;28;20116;-78
2020/12/26 01:51:32;;;;;;;6.22;4.43;;;-0.30;99.90;;;;;;5055724;28;20021;-79
2020/12/26 01:54:01;;;;;;;8.05;5.03;;;-0.30;99.90;;;;;;5055663;28;20028;-78
2020/12/26 01:56:26;;;;;;;9.32;4.45;;;-0.30;99.90;;;;;;5073644;28;20035;-78
2020/12/26 01:58:52;;;;;;;6.70;4.30;;;-0.40;99.90;;;;;;5073402;28;20448;-78
2020/12/26 02:01:34;;;;;;;8.63;4.95;;;-0.30;99.90;;;;;;5055475;28;20028;-78
2020/12/26 02:04:00;;;;;;;9.60;4.57;;;-0.40;99.90;;;;;;5055505;28;20077;-78
2020/12/26 02:06:32;;;;;;;9.98;4.55;;;-0.30;99.90;;;;;;5073377;28;20028;-78
2020/12/26 02:09:00;;;;;;;9.70;4.93;;;-0.40;99.90;;;;;;5055446;28;20028;-78
2020/12/26 02:11:29;;;;;;;6.95;5.03;;;-0.40;99.90;;;;;;5055376;28;20085;-78
2020/12/26 02:13:56;;;;;;;9.13;5.07;;;-0.30;99.90;;;;;;5073067;28;20025;-78
2020/12/26 02:16:23;;;;;;;13.82;4.65;;;-0.40;99.90;;;;;;5055362;28;20125;-78
2020/12/26 02:18:49;;;;;;;10.38;4.85;;;-0.40;99.90;;;;;;5055150;28;20503;-78
2020/12/26 02:21:15;;;;;;;9.50;4.55;;;-0.30;99.90;;;;;;5071894;28;20063;-78
2020/12/26 02:23:45;;;;;;;9.82;4.85;;;-0.40;99.90;;;;;;5054696;28;20024;-78
2020/12/26 02:26:11;;;;;;;10.15;5.47;;;-0.30;99.90;;;;;;5073161;28;20028;-78
2020/12/26 02:28:37;;;;;;;9.50;4.93;;;-0.30;99.90;;;;;;5072966;28;20492;-78
2020/12/26 02:31:03;;;;;;;7.70;4.43;;;-0.30;99.90;;;;;;5073243;28;20025;-78
2020/12/26 02:33:30;;;;;;;9.80;4.70;;;-0.30;99.90;;;;;;5072949;28;20021;-78
2020/12/26 02:35:56;;;;;;;7.25;4.82;;;-0.30;99.90;;;;;;5055048;28;20389;-78
2020/12/26 02:38:22;;;;;;;8.82;4.90;;;-0.40;99.90;;;;;;5072764;28;20539;-78
2020/12/26 02:40:49;;;;;;;7.72;4.78;;;-0.40;99.90;;;;;;5054924;28;20046;-78
2020/12/26 02:43:22;;;;;;;6.32;3.97;;;-0.40;99.90;;;;;;5072614;28;20035;-78
2020/12/26 02:45:48;;;;;;;;;;;-0.40;99.90;;;;;;5073362;28;20052;-78
2020/12/26 02:48:14;;;;;;;9.20;4.30;;;-0.40;99.90;;;;;;5072853;28;19905;-78
2020/12/26 02:50:39;;;;;;;7.82;4.35;;;-0.40;99.90;;;;;;5072787;28;20386;-78
2020/12/26 02:53:05;;;;;;;7.97;4.50;;;-0.40;99.90;;;;;;5072812;28;20024;-79
2020/12/26 02:55:30;;;;;;;9.43;5.35;;;-0.40;99.90;;;;;;5071074;28;20032;-78
2020/12/26 02:57:56;;;;;;;4.95;4.30;;;-0.40;99.90;;;;;;5054346;28;20044;-78
2020/12/26 03:00:22;;;;;;;9.20;4.90;;;-0.40;99.90;;;;;;5054806;28;20056;-78
2020/12/26 03:02:47;;;;;;;12.52;4.72;;;-0.50;99.90;;;;;;5072668;28;20081;-78
2020/12/26 03:05:13;;;;;;;8.75;5.13;;;-0.40;99.90;;;;;;5072712;28;20096;-78
2020/12/26 03:07:38;;;;;;;10.30;4.88;;;-0.40;99.90;;;;;;5054654;28;20028;-78
2020/12/26 03:10:05;;;;;;;6.80;4.55;;;-0.40;99.90;;;;;;5072664;28;20024;-78
2020/12/26 03:12:30;;;;;;;7.32;4.60;;;-0.40;99.90;;;;;;5072513;28;20051;-78
2020/12/26 03:14:56;;;;;;;10.45;5.18;;;-0.50;99.90;;;;;;5072781;28;20470;-78
2020/12/26 03:17:22;;;;;;;12.00;5.22;;;-0.50;99.90;;;;;;5054427;28;20029;-78
2020/12/26 03:19:47;;;;;;;5.35;4.60;;;-0.50;99.90;;;;;;5072594;28;20066;-78
2020/12/26 03:22:13;;;;;;;12.50;5.22;;;-0.50;99.90;;;;;;5072478;28;20013;-78
2020/12/26 03:24:39;;;;;;;7.78;4.88;;;-0.50;99.90;;;;;;5072436;28;20029;-78
2020/12/26 03:27:04;;;;;;;8.90;4.65;;;-0.50;99.90;;;;;;5072415;28;20046;-78
2020/12/26 03:29:30;;;;;;;7.95;4.68;;;-0.50;99.90;;;;;;5072436;28;20039;-78
2020/12/26 03:31:56;;;;;;;9.57;4.40;;;-0.50;99.90;;;;;;5054258;28;20024;-78
2020/12/26 03:34:22;;;;;;;8.52;4.97;;;-0.50;99.90;;;;;;5072397;28;20095;-78
2020/12/26 03:36:48;;;;;;;9.18;4.88;;;-0.50;99.90;;;;;;5072385;28;20025;-78
2020/12/26 03:39:14;;;;;;;8.23;4.30;;;-0.50;99.90;;;;;;5054297;28;20032;-78
2020/12/26 03:41:39;;;;;;;10.07;5.32;;;-0.40;99.90;;;;;;5054400;28;20144;-79
2020/12/26 03:44:05;;;;;;;10.02;5.00;;;-0.50;99.90;;;;;;5072260;28;20029;-78
2020/12/26 03:46:30;;;;;;;6.70;4.55;;;-0.40;99.90;;;;;;5054314;28;20169;-79
2020/12/26 03:48:56;;;;;;;11.70;4.43;;;-0.40;99.90;;;;;;5054320;28;20036;-78
2020/12/26 03:51:22;;;;;;;9.13;4.72;;;-0.40;99.90;;;;;;5054261;28;20024;-78
2020/12/26 03:53:47;;;;;;;11.15;5.20;;;-0.50;99.90;;;;;;5053732;28;20028;-78
2020/12/26 03:56:20;;;;;;;13.38;6.55;;;-0.40;99.90;;;;;;5072253;28;20566;-78
2020/12/26 03:58:46;;;;;;;12.55;6.25;;;-0.40;99.90;;;;;;5054221;28;20024;-77
2020/12/26 04:01:12;;;;;;;11.80;5.93;;;-0.40;99.90;;;;;;5054160;28;20031;-78
2020/12/26 04:03:38;;;;;;;12.02;6.65;;;-0.40;99.90;;;;;;5072041;28;20086;-77
2020/12/26 04:06:04;;;;;;;11.85;5.75;;;-0.40;99.90;;;;;;5054879;28;20497;-77
2020/12/26 04:08:30;;;;;;;10.50;5.07;;;-0.40;99.90;;;;;;5057203;28;20359;-78
2020/12/26 04:10:56;;;;;;;8.73;4.40;;;-0.40;99.90;;;;;;5057412;28;20021;-78
2020/12/26 04:13:22;;;;;;;9.27;5.18;;;-0.40;99.90;;;;;;5075548;28;20029;-77
2020/12/26 04:15:48;;;;;;;8.88;4.75;;;-0.40;99.90;;;;;;5057508;28;20360;-77
2020/12/26 04:18:14;;;;;;;7.97;4.47;;;-0.40;99.90;;;;;;5075347;28;20061;-77
2020/12/26 04:20:39;;;;;;;7.80;4.47;;;-0.40;99.90;;;;;;5057581;28;20546;-78
2020/12/26 04:23:05;;;;;;;7.93;5.05;;;-0.40;99.90;;;;;;5057435;28;20021;-78
2020/12/26 04:25:31;;;;;;;9.38;5.30;;;-0.40;99.90;;;;;;5075350;28;20032;-78
2020/12/26 04:27:57;;;;;;;6.32;4.50;;;-0.40;99.90;;;;;;5057328;28;20036;-78
2020/12/26 04:30:23;;;;;;;13.82;5.13;;;-0.50;99.90;;;;;;5057399;28;20017;-78
2020/12/26 04:32:50;;;;;;;9.80;5.13;;;-0.50;99.90;;;;;;5057055;28;20046;-78
2020/12/26 04:35:20;;;;;;;11.15;5.32;;;-0.50;99.90;;;;;;5074973;28;20025;-78
2020/12/26 04:37:47;;;;;;;8.13;5.22;;;-0.50;99.90;;;;;;5075079;28;20029;-78
2020/12/26 04:40:13;;;;;;;9.10;5.60;;;-0.50;99.90;;;;;;5057067;28;20033;-78
2020/12/26 04:42:39;;;;;;;9.65;6.50;;;-0.50;99.90;;;;;;5056915;28;20029;-77
2020/12/26 04:45:05;;;;;;;11.18;5.75;;;-0.50;99.90;;;;;;5056907;28;20020;-78
2020/12/26 04:47:39;;;;;;;10.13;5.75;;;-0.50;99.90;;;;;;5056935;28;20424;-77
2020/12/26 04:50:05;;;;;;;9.75;5.63;;;-0.50;99.90;;;;;;5074963;28;20048;-78
2020/12/26 04:52:34;;;;;;;9.98;5.78;;;-0.50;99.90;;;;;;5074879;28;20081;-78
2020/12/26 04:55:05;;;;;;;10.73;6.07;;;-0.50;99.90;;;;;;5056908;28;20024;-78
2020/12/26 04:57:34;;;;;;;10.10;6.32;;;-0.50;99.90;;;;;;5074652;28;20032;-78
2020/12/26 05:00:03;;;;;;;10.45;5.22;;;-0.50;99.90;;;;;;5056731;28;20029;-78
2020/12/26 05:02:41;;;;;;;9.07;6.05;;;-0.50;99.90;;;;;;5074603;28;20064;-78
2020/12/26 05:05:08;;;;;;;11.02;6.22;;;-0.50;99.90;;;;;;5056683;28;20497;-78
2020/12/26 05:07:36;;;;;;;8.95;5.65;;;-0.50;99.90;;;;;;5056499;28;20021;-77
2020/12/26 05:10:03;;;;;;;11.88;6.43;;;-0.50;99.90;;;;;;5056584;28;20028;-78
2020/12/26 05:12:29;;;;;;;11.07;6.30;;;-0.60;99.90;;;;;;5056431;28;20493;-78
2020/12/26 05:14:55;;;;;;;10.25;6.05;;;-0.60;99.90;;;;;;5056545;28;20032;-77
2020/12/26 05:17:20;;;;;;;9.52;5.32;;;-0.60;99.90;;;;;;5055800;28;20024;-77
2020/12/26 05:19:47;;;;;;;9.38;5.68;;;-0.60;99.90;;;;;;5074027;28;20017;-77
2020/12/26 05:22:17;;;;;;;10.45;5.55;;;-0.60;99.90;;;;;;5056305;28;20019;-78
2020/12/26 05:24:43;;;;;;;7.68;5.25;;;-0.60;99.90;;;;;;5074226;28;20024;-77
2020/12/26 05:27:08;;;;;;;12.27;5.65;;;-0.60;99.90;;;;;;5056512;28;20132;-78
2020/12/26 05:29:36;;;;;;;9.45;5.70;;;-0.60;99.90;;;;;;5056184;28;20450;-79
2020/12/26 05:32:11;;;;;;;8.82;6.25;;;-0.50;99.90;;;;;;5056186;28;20027;-77
2020/12/26 05:34:38;;;;;;;10.35;5.47;;;-0.60;99.90;;;;;;5056121;28;20024;-78
2020/12/26 05:37:05;;;;;;;8.93;5.30;;;-0.60;99.90;;;;;;5073889;28;20025;-78
2020/12/26 05:39:37;;;;;;;9.25;4.70;;;-0.60;99.90;;;;;;5073918;28;20048;-78
2020/12/26 05:42:04;;;;;;;7.43;4.80;;;-0.60;99.90;;;;;;5055977;28;20111;-77
2020/12/26 05:44:31;;;;;;;7.50;4.80;;;-0.60;99.90;;;;;;5073778;28;20039;-78
2020/12/26 05:47:02;;;;;;;8.48;5.00;;;-0.60;99.90;;;;;;5073738;28;20029;-77
2020/12/26 05:49:39;;;;;;;7.78;5.22;;;-0.60;99.90;;;;;;5073825;28;20024;-77
2020/12/26 05:52:04;;;;;;;7.45;5.00;;;-0.60;99.90;;;;;;5073647;28;20024;-78
2020/12/26 05:54:31;;;;;;;9.05;5.00;;;-0.60;99.90;;;;;;5055749;28;20169;-79
2020/12/26 05:57:12;;;;;;;5.93;4.65;;;-0.60;99.90;;;;;;5072635;28;20115;-77
2020/12/26 05:59:39;;;;;;;8.38;5.15;;;-0.60;99.90;;;;;;5055663;28;20082;-77
2020/12/26 06:02:28;;;;;;;8.07;4.57;;;-0.60;99.90;;;;;;5055595;28;20025;-78
2020/12/26 06:05:02;;;;;;;6.68;5.03;;;-0.60;99.90;;;;;;5055515;28;20552;-79
2020/12/26 06:07:32;;;;;;;6.93;4.70;;;-0.60;99.90;;;;;;5071222;28;20020;-78
2020/12/26 06:10:00;;;;;;;6.25;4.55;;;-0.60;99.90;;;;;;5053922;28;20444;-78
2020/12/26 06:12:28;;;;;;;10.70;5.00;;;-0.60;99.90;;;;;;5055062;28;20525;-77
2020/12/26 06:14:54;;;;;;;8.77;5.13;;;-0.60;99.90;;;;;;5054733;28;20041;-77
2020/12/26 06:17:24;;;;;;;8.63;5.03;;;-0.70;99.90;;;;;;5073003;28;20115;-78
2020/12/26 06:20:06;;;;;;;9.73;5.70;;;-0.70;99.90;;;;;;5072910;28;20032;-78
2020/12/26 06:22:42;;;;;;;7.38;5.15;;;-0.70;99.90;;;;;;5072854;28;20363;-77
2020/12/26 06:25:11;;;;;;;6.05;4.60;;;-0.70;99.90;;;;;;5055185;28;20033;-77
2020/12/26 06:27:45;;;;;;;7.35;5.32;;;-0.70;99.90;;;;;;5072715;28;20047;-77
2020/12/26 06:30:11;;;;;;;13.00;5.80;;;-0.70;99.90;;;;;;5055014;28;20025;-77
2020/12/26 06:32:39;;;;;;;7.85;5.05;;;-0.70;99.90;;;;;;5055014;28;20107;-77
2020/12/26 06:35:04;;;;;;;8.32;5.70;;;-0.70;99.90;;;;;;5055137;28;20048;-77
2020/12/26 06:37:30;;;;;;;7.18;5.03;;;-0.70;99.90;;;;;;5054809;28;20075;-78
2020/12/26 06:39:56;;;;;;;10.10;7.45;;;-0.70;99.90;;;;;;5072966;28;20058;-77
2020/12/26 06:42:23;;;;;;;11.25;7.07;;;-0.70;99.90;;;;;;5072862;28;20033;-78
2020/12/26 06:44:49;;;;;;;8.68;6.00;;;-0.60;99.90;;;;;;5054896;28;20119;-78
2020/12/26 06:47:38;;;;;;;11.55;7.30;;;-0.60;99.90;;;;;;5054901;28;20020;-78
2020/12/26 06:50:19;;;;;;;9.95;5.88;;;-0.60;99.90;;;;;;5072940;28;20024;-78
2020/12/26 06:52:45;;;;;;;13.30;6.50;;;-0.60;99.90;;;;;;5072792;28;20025;-78
2020/12/26 06:55:44;;;;;;;8.88;6.55;;;-0.70;99.90;;;;;;5072801;28;20025;-77
2020/12/26 06:58:49;;;;;;;10.50;6.88;;;-0.70;99.90;;;;;;5072627;28;20036;-78
2020/12/26 07:01:24;;;;;;;11.73;6.40;;;-0.70;99.90;;;;;;5071560;28;20393;-77
2020/12/26 07:04:17;;;;;;;12.00;6.00;;;-0.60;99.90;;;;;;5054708;28;20029;-78
2020/12/26 07:06:44;;;;;;;9.38;5.80;;;-0.70;99.90;;;;;;5052855;28;20078;-78
2020/12/26 07:09:12;;;;;;;9.20;5.25;;;-0.70;99.90;;;;;;5072724;28;20035;-78
2020/12/26 07:11:48;;;;;;;11.63;6.28;;;-0.60;99.90;;;;;;5054648;28;20043;-78
2020/12/26 07:14:33;;;;;;;10.18;6.65;;;-0.60;99.90;;;;;;5057147;28;20036;-78
2020/12/26 07:17:03;;;;;;;15.05;7.35;;;-0.60;99.90;;;;;;5072499;28;20482;-78
2020/12/26 07:19:42;;;;;;;10.35;6.53;;;-0.60;99.90;;;;;;5072333;28;20082;-78
2020/12/26 07:22:16;;;;;;;13.68;7.28;;;-0.60;99.90;;;;;;5072410;28;20070;-78
2020/12/26 07:24:43;;;;;;;15.00;7.90;;;-0.50;99.90;;;;;;5072385;28;20032;-78
2020/12/26 07:27:11;;;;;;;17.20;8.02;;;-0.50;99.90;;;;;;5072367;28;20028;-78
2020/12/26 07:29:57;;;;;;;19.67;8.93;;;-0.50;99.90;;;;;;5053710;28;20029;-78
2020/12/26 07:32:47;;;;;;;16.10;7.97;;;-0.50;99.90;;;;;;5045386;28;20024;-78
2020/12/26 07:35:16;;;;;;;15.88;8.13;;;-0.50;99.90;;;;;;5069628;28;20052;-79
2020/12/26 07:37:51;;;;;;;9.90;7.30;;;-0.50;99.90;;;;;;5044602;28;20032;-78
2020/12/26 07:40:25;;;;;;;15.73;8.30;;;-0.50;99.90;;;;;;5044214;28;20028;-77
2020/12/26 07:42:51;;;;;;;16.20;7.97;;;-0.50;99.90;;;;;;5073243;28;20517;-78
2020/12/26 07:45:22;;;;;;;14.02;7.05;;;-0.50;99.90;;;;;;5074231;28;20057;-78
2020/12/26 07:47:53;;;;;;;16.05;7.63;;;-0.50;99.90;;;;;;5075768;28;20016;-78
2020/12/26 07:50:24;;;;;;;15.65;8.70;;;-0.50;99.90;;;;;;5074506;28;20016;-78
2020/12/26 07:52:58;;;;;;;12.23;7.50;;;-0.50;99.90;;;;;;5074461;28;20020;-79
2020/12/26 07:55:24;;;;;;;20.10;10.52;;;-0.50;99.90;;;;;;5074063;28;20029;-78
2020/12/26 07:58:04;;;;;;;15.90;8.40;;;-0.50;99.90;;;;;;5073537;28;20043;-79
2020/12/26 08:00:35;;;;;;;18.80;9.95;;;-0.50;99.90;;;;;;5072116;28;20024;-79
2020/12/26 08:03:03;;;;;;;19.13;10.45;;;-0.50;99.90;;;;;;5073361;28;20028;-79
2020/12/26 08:05:31;;;;;;;21.48;13.48;;;-0.50;99.90;;;;;;5057225;28;20008;-79
2020/12/26 08:07:57;;;;;;;17.30;10.38;;;-0.50;99.90;;;;;;5056177;28;20056;-79
2020/12/26 08:10:24;;;;;;;20.65;11.48;;;-0.50;99.90;;;;;;5083167;28;20117;-79
2020/12/26 08:12:59;;;;;;;22.73;11.13;;;-0.50;99.90;;;;;;5073771;28;20012;-79
2020/12/26 08:15:29;;;;;;;18.45;9.18;;;-0.50;99.90;;;;;;5068770;28;20123;-79
2020/12/26 08:17:58;;;;;;;19.17;10.02;;;-0.50;99.90;;;;;;5047895;28;20028;-79
2020/12/26 08:20:25;;;;;;;18.52;11.18;;;-0.40;99.90;;;;;;5059911;28;20032;-79
2020/12/26 08:22:50;;;;;;;25.13;11.63;;;-0.40;99.90;;;;;;5044413;28;20043;-79
2020/12/26 08:25:18;;;;;;;21.13;9.65;;;-0.40;99.90;;;;;;5050737;28;20429;-78
2020/12/26 08:27:45;;;;;;;48.22;17.90;;;-0.40;99.90;;;;;;5053439;28;20020;-79
2020/12/26 08:30:11;;;;;;;21.77;8.90;;;-0.40;99.90;;;;;;5071950;28;20045;-79
2020/12/26 08:33:01;;;;;;;58.25;23.08;;;-0.40;99.90;;;;;;5052962;28;20143;-79
2020/12/26 08:35:30;;;;;;;54.35;22.45;;;-0.40;99.90;;;;;;5061205;28;20043;-79
2020/12/26 08:38:11;;;;;;;68.63;27.92;;;-0.40;99.90;;;;;;5071491;28;20189;-79
2020/12/26 08:40:39;;;;;;;35.20;18.13;;;-0.40;99.90;;;;;;5053011;28;20573;-80
2020/12/26 08:43:11;;;;;;;44.30;19.20;;;-0.30;99.90;;;;;;5071266;28;20031;-80
2020/12/26 08:45:37;;;;;;;35.30;15.33;;;-0.30;99.90;;;;;;5074317;28;20033;-79
2020/12/26 08:48:17;;;;;;;89.45;38.38;;;-0.30;99.90;;;;;;5050309;28;20278;-79
2020/12/26 08:50:43;;;;;;;149.65;68.35;;;-0.30;99.90;;;;;;5069323;28;20403;-79
2020/12/26 08:53:10;;;;;;;79.07;26.42;;;-0.20;99.90;;;;;;5050072;28;20505;-79
2020/12/26 08:55:50;;;;;;;47.67;17.77;;;-0.20;99.90;;;;;;5068821;28;20073;-79
2020/12/26 08:58:50;;;;;;;49.13;19.58;;;-0.30;99.90;;;;;;5048701;28;20040;-81
2020/12/26 09:01:16;;;;;;;53.70;28.58;;;-0.20;99.90;;;;;;5053250;28;20017;-80
2020/12/26 09:03:49;;;;;;;65.20;31.27;;;-0.20;99.90;;;;;;5053789;28;20070;-78
2020/12/26 09:06:14;;;;;;;82.30;26.85;;;-0.10;99.90;;;;;;5054723;28;20131;-79
2020/12/26 09:08:40;;;;;;;59.75;22.42;;;-0.20;99.90;;;;;;5059122;22;20561;-80
2020/12/26 09:11:07;;;;;;;63.78;22.67;;;-0.10;99.90;;;;;;5050976;28;20382;-80
2020/12/26 09:13:52;;;;;;;61.53;22.58;;;-0.10;99.90;;;;;;5035416;28;20017;-80
2020/12/26 09:16:18;;;;;;;72.80;28.33;;;0.00;99.90;;;;;;5049354;28;20078;-79
2020/12/26 09:18:46;;;;;;;65.93;24.67;;;0.10;99.90;;;;;;5031790;28;20411;-80
2020/12/26 09:21:29;;;;;;;55.83;20.80;;;0.10;99.90;;;;;;5050852;28;20386;-79
2020/12/26 09:23:58;;;;;;;41.25;16.88;;;0.10;99.90;;;;;;5033749;28;20111;-79
2020/12/26 09:26:29;;;;;;;45.58;17.10;;;0.00;99.90;;;;;;5049039;28;20546;-80
2020/12/26 09:28:56;;;;;;;43.40;17.60;;;0.00;99.90;;;;;;5033739;28;20031;-79
2020/12/26 09:31:35;;;;;;;29.17;12.77;;;0.00;99.90;;;;;;5050146;28;20035;-78
2020/12/26 09:34:13;;;;;;;13.65;7.30;;;-0.10;99.90;;;;;;5050757;28;20426;-79
2020/12/26 09:36:42;;;;;;;33.20;15.15;;;-0.20;99.90;;;;;;5052179;28;20394;-79
2020/12/26 09:39:10;;;;;;;53.15;19.58;;;-0.20;99.90;;;;;;5036287;28;20040;-78
2020/12/26 09:41:52;;;;;;;37.97;17.92;;;-0.20;99.90;;;;;;5036312;28;20017;-78
2020/12/26 09:44:20;;;;;;;40.15;18.75;;;-0.20;99.90;;;;;;5046288;28;20494;-79
2020/12/26 09:46:46;;;;;;;23.85;11.93;;;-0.30;99.90;;;;;;5022003;28;20021;-78
2020/12/26 09:49:14;;;;;;;29.42;14.50;;;-0.20;99.90;;;;;;5044444;28;20398;-78
2020/12/26 09:51:44;;;;;;;57.40;23.45;;;-0.30;99.90;;;;;;5039418;28;20032;-78
2020/12/26 09:54:10;;;;;;;55.42;21.38;;;-0.20;99.90;;;;;;5033075;28;20026;-78
2020/12/26 09:56:35;;;;;;;79.70;34.08;;;-0.30;99.90;;;;;;5033406;28;20075;-78
2020/12/26 09:59:01;;;;;;;77.82;32.15;;;-0.30;99.90;;;;;;5032429;28;20120;-78
2020/12/26 10:01:27;;;;;;;90.82;32.63;;;-0.30;99.90;;;;;;5017350;28;20021;-78
2020/12/26 10:03:53;;;;;;;78.95;27.30;;;-0.30;99.90;;;;;;5013279;28;20030;-78
2020/12/26 10:06:20;;;;;;;49.50;17.60;;;-0.30;99.90;;;;;;5029046;28;20202;-78
2020/12/26 10:08:47;;;;;;;84.00;29.98;;;-0.20;99.90;;;;;;5032179;28;20025;-77
2020/12/26 10:11:17;;;;;;;67.05;25.88;;;-0.20;99.90;;;;;;5045949;28;20028;-78
2020/12/26 10:13:44;;;;;;;121.18;43.05;;;-0.10;99.90;;;;;;5046743;28;20376;-78
2020/12/26 10:16:10;;;;;;;117.82;42.92;;;0.00;99.90;;;;;;5029050;28;20036;-79
2020/12/26 10:18:36;;;;;;;124.30;44.15;;;0.10;99.90;;;;;;5021279;28;20151;-78
2020/12/26 10:21:05;;;;;;;104.25;37.35;;;0.10;99.90;;;;;;5023055;28;20187;-78
2020/12/26 10:23:31;;;;;;;42.65;15.10;;;0.10;99.90;;;;;;5031809;28;20068;-78
2020/12/26 10:26:09;;;;;;;53.08;22.38;;;0.10;99.90;;;;;;5041789;28;20487;-78
2020/12/26 10:28:35;;;;;;;82.75;29.38;;;0.10;99.90;;;;;;5027529;28;20021;-79
2020/12/26 10:31:01;;;;;;;63.03;23.75;;;0.10;99.90;;;;;;5045248;28;20094;-79
2020/12/26 10:33:28;;;;;;;58.83;20.13;;;0.10;99.90;;;;;;5045334;28;20383;-78
2020/12/26 10:35:54;;;;;;;61.95;22.08;;;0.10;99.90;;;;;;5025757;28;20029;-79
2020/12/26 10:38:20;;;;;;;48.28;18.80;;;0.20;99.90;;;;;;5027502;28;20513;-78
2020/12/26 10:40:47;;;;;;;58.88;21.42;;;0.20;99.90;;;;;;5025880;28;20021;-78
2020/12/26 10:43:14;;;;;;;40.17;13.30;;;0.20;99.90;;;;;;5027929;28;20091;-79
2020/12/26 10:45:39;;;;;;;15.18;6.05;;;0.10;99.90;;;;;;5039602;28;20035;-79
2020/12/26 10:48:05;;;;;;;39.75;16.25;;;0.10;99.90;;;;;;5028489;28;20021;-78
2020/12/26 10:50:31;;;;;;;31.40;14.23;;;0.10;99.90;;;;;;5024811;28;20149;-78
2020/12/26 10:52:56;;;;;;;47.08;20.48;;;0.10;99.90;;;;;;5031787;28;20032;-77
2020/12/26 10:55:32;;;;;;;;;;;;;;;;;;;;;
2020/12/26 10:57:58;;;;;;;32.03;12.93;;;0.10;99.90;;;;;;5049489;28;20040;-80
2020/12/26 11:00:27;;;;;;;36.10;14.73;;;0.10;99.90;;;;;;5029742;28;20021;-79
2020/12/26 11:02:53;;;;;;;26.67;12.38;;;0.10;99.90;;;;;;5044448;28;20009;-78
2020/12/26 11:05:19;;;;;;;30.15;11.35;;;0.10;99.90;;;;;;5048354;28;20025;-78
2020/12/26 11:07:44;;;;;;;32.17;15.73;;;0.10;99.90;;;;;;5046811;28;20028;-78
2020/12/26 11:10:10;;;;;;;29.08;12.27;;;0.10;99.90;;;;;;5044038;28;20024;-78
2020/12/26 11:12:36;;;;;;;21.73;11.30;;;0.10;99.90;;;;;;5040134;28;20013;-78
2020/12/26 11:15:02;;;;;;;20.15;9.82;;;0.20;99.90;;;;;;5023218;28;20386;-78
2020/12/26 11:17:27;;;;;;;14.18;6.03;;;0.10;99.90;;;;;;5024615;28;20028;-78
2020/12/26 11:19:53;;;;;;;64.47;29.95;;;0.10;99.90;;;;;;5044268;28;20406;-79
2020/12/26 11:22:19;;;;;;;64.22;29.92;;;0.10;99.90;;;;;;5041045;28;20390;-78
2020/12/26 11:24:44;;;;;;;48.33;21.33;;;0.10;99.90;;;;;;5044313;28;20025;-79
2020/12/26 11:27:10;;;;;;;23.33;9.63;;;0.10;99.90;;;;;;5042150;28;20026;-78
2020/12/26 11:29:39;;;;;;;25.98;8.70;;;0.10;99.90;;;;;;5044430;28;20051;-79
2020/12/26 11:32:05;;;;;;;42.80;16.23;;;0.00;99.90;;;;;;5028226;28;20075;-78
2020/12/26 11:34:30;;;;;;;10.57;6.30;;;0.00;99.90;;;;;;5033583;28;20048;-80
2020/12/26 11:36:56;;;;;;;32.85;12.45;;;-0.10;99.90;;;;;;5031268;28;20017;-78
2020/12/26 11:39:22;;;;;;;10.48;6.03;;;-0.10;99.90;;;;;;5061202;28;20032;-78
2020/12/26 11:41:47;;;;;;;37.60;12.65;;;-0.20;99.90;;;;;;5043383;28;20075;-78
2020/12/26 11:44:13;;;;;;;12.80;6.63;;;-0.10;99.90;;;;;;5025425;28;20101;-79
2020/12/26 11:46:39;;;;;;;27.40;11.27;;;-0.10;99.90;;;;;;5021211;28;20128;-78
2020/12/26 11:49:05;;;;;;;12.93;5.57;;;-0.10;99.90;;;;;;5034807;28;20044;-79
2020/12/26 11:51:31;;;;;;;20.63;9.85;;;-0.20;99.90;;;;;;5037748;28;20028;-78
2020/12/26 11:53:56;;;;;;;30.13;12.18;;;-0.10;99.90;;;;;;5031471;28;20052;-78
2020/12/26 11:56:22;;;;;;;28.58;9.18;;;0.00;99.90;;;;;;5048329;28;20367;-79
2020/12/26 11:58:48;;;;;;;36.92;13.48;;;0.00;99.90;;;;;;5045780;28;20041;-79
2020/12/26 12:01:18;;;;;;;30.83;14.45;;;0.00;99.90;;;;;;5044375;28;20490;-79
2020/12/26 12:03:45;;;;;;;29.45;12.80;;;-0.10;99.90;;;;;;5047721;28;20026;-78
2020/12/26 12:06:12;;;;;;;27.13;12.02;;;0.00;99.90;;;;;;5032708;28;20025;-80
2020/12/26 12:08:39;;;;;;;29.45;12.63;;;-0.10;99.90;;;;;;5028809;28;20051;-78
2020/12/26 12:11:05;;;;;;;37.45;17.02;;;-0.10;99.90;;;;;;5030102;28;20025;-77
2020/12/26 12:13:30;;;;;;;34.58;12.02;;;-0.10;99.90;;;;;;5027750;28;20024;-79
2020/12/26 12:15:56;;;;;;;18.15;8.40;;;-0.10;99.90;;;;;;5045761;28;20099;-78
2020/12/26 12:18:22;;;;;;;19.38;8.93;;;-0.10;99.90;;;;;;5024958;28;20084;-78
2020/12/26 12:20:47;;;;;;;35.72;14.95;;;-0.20;99.90;;;;;;5021282;28;20501;-78
2020/12/26 12:23:13;;;;;;;19.60;7.65;;;-0.10;99.90;;;;;;5045766;28;20029;-78
2020/12/26 12:25:39;;;;;;;24.98;9.68;;;-0.10;99.90;;;;;;5045189;28;20025;-78
2020/12/26 12:28:05;;;;;;;15.95;7.03;;;-0.20;99.90;;;;;;5030816;28;20025;-78
2020/12/26 12:30:31;;;;;;;16.10;7.60;;;-0.20;99.90;;;;;;5035207;28;20030;-78
2020/12/26 12:32:56;;;;;;;33.13;14.00;;;-0.10;99.90;;;;;;5014960;28;20460;-79
2020/12/26 12:35:22;;;;;;;25.85;11.60;;;-0.20;99.90;;;;;;5033965;28;20072;-79
2020/12/26 12:37:51;;;;;;;33.90;14.20;;;-0.20;99.90;;;;;;5045903;28;20406;-78
2020/12/26 12:40:17;;;;;;;44.75;19.02;;;-0.20;99.90;;;;;;5035619;28;20013;-78
2020/12/26 12:42:44;;;;;;;29.30;12.65;;;-0.20;99.90;;;;;;5043628;28;20051;-78
2020/12/26 12:45:10;;;;;;;30.15;14.45;;;-0.20;99.90;;;;;;5052123;28;20029;-78
2020/12/26 12:47:36;;;;;;;38.92;16.90;;;-0.20;99.90;;;;;;5041923;28;20082;-79